sensor_id;sensor_type;location;lat;lon;timestamp;pressure;altitude;pressure_sealevel;temperature;humidity
84815;BME280;75050;53.190;5.562;2024-02-26T00:01:25;100467.66;;;8.29;85.08
84815;BME280;75050;53.190;5.562;2024-02-26T00:03:50;100478.47;;;8.37;85.09
84815;BME280;75050;53.190;5.562;2024-02-26T00:06:17;100472.59;;;8.33;85.09
84815;BME280;75050;53.190;5.562;2024-02-26T00:08:43;100478.47;;;8.37;85.04
84815;BME280;75050;53.190;5.562;2024-02-26T00:11:09;100481.97;;;8.36;84.79
84815;BME280;75050;53.190;5.562;2024-02-26T00:13:34;100449.41;;;8.15;84.86
84815;BME280;75050;53.190;5.562;2024-02-26T00:15:59;100472.75;;;8.30;85.03
84815;BME280;75050;53.190;5.562;2024-02-26T00:18:25;100486.34;;;8.35;85.02
84815;BME280;75050;53.190;5.562;2024-02-26T00:20:50;100485.59;;;8.33;84.96
84815;BME280;75050;53.190;5.562;2024-02-26T00:23:16;100481.28;;;8.32;85.33
84815;BME280;75050;53.190;5.562;2024-02-26T00:25:41;100491.69;;;8.32;85.20
84815;BME280;75050;53.190;5.562;2024-02-26T00:28:08;100496.19;;;8.29;84.92
84815;BME280;75050;53.190;5.562;2024-02-26T00:30:34;100481.63;;;8.26;84.99
84815;BME280;75050;53.190;5.562;2024-02-26T00:32:59;100492.69;;;8.30;85.03
84815;BME280;75050;53.190;5.562;2024-02-26T00:35:24;100497.88;;;8.30;84.89
84815;BME280;75050;53.190;5.562;2024-02-26T00:37:50;100498.78;;;8.29;85.15
84815;BME280;75050;53.190;5.562;2024-02-26T00:40:15;100484.56;;;8.20;84.96
84815;BME280;75050;53.190;5.562;2024-02-26T00:42:41;100493.84;;;8.24;85.05
84815;BME280;75050;53.190;5.562;2024-02-26T00:45:11;100504.09;;;8.27;84.92
84815;BME280;75050;53.190;5.562;2024-02-26T00:47:37;100496.53;;;8.23;84.91
84815;BME280;75050;53.190;5.562;2024-02-26T00:50:02;100496.53;;;8.23;85.22
84815;BME280;75050;53.190;5.562;2024-02-26T00:52:28;100497.28;;;8.25;84.89
84815;BME280;75050;53.190;5.562;2024-02-26T00:54:53;100491.53;;;8.20;84.85
84815;BME280;75050;53.190;5.562;2024-02-26T00:57:18;100497.28;;;8.25;84.85
84815;BME280;75050;53.190;5.562;2024-02-26T00:59:44;100503.41;;;8.24;84.94
84815;BME280;75050;53.190;5.562;2024-02-26T01:02:09;100500.06;;;8.22;84.95
84815;BME280;75050;53.190;5.562;2024-02-26T01:04:34;100507.94;;;8.20;85.22
84815;BME280;75050;53.190;5.562;2024-02-26T01:07:00;100499.38;;;8.18;84.97
84815;BME280;75050;53.190;5.562;2024-02-26T01:09:25;100492.84;;;8.11;84.86
84815;BME280;75050;53.190;5.562;2024-02-26T01:11:51;100504.56;;;8.18;84.97
84815;BME280;75050;53.190;5.562;2024-02-26T01:14:16;100508.81;;;8.19;84.74
84815;BME280;75050;53.190;5.562;2024-02-26T01:16:41;100515.72;;;8.20;84.82
84815;BME280;75050;53.190;5.562;2024-02-26T01:19:07;100508.91;;;8.18;84.91
84815;BME280;75050;53.190;5.562;2024-02-26T01:21:32;100500.63;;;8.11;84.68
84815;BME280;75050;53.190;5.562;2024-02-26T01:23:57;100509.84;;;8.17;84.93
84815;BME280;75050;53.190;5.562;2024-02-26T01:26:23;100515.03;;;8.17;84.87
84815;BME280;75050;53.190;5.562;2024-02-26T01:28:48;100514.28;;;8.15;84.97
84815;BME280;75050;53.190;5.562;2024-02-26T01:31:13;100524.66;;;8.15;84.92
84815;BME280;75050;53.190;5.562;2024-02-26T01:33:39;100535.88;;;8.15;84.81
84815;BME280;75050;53.190;5.562;2024-02-26T01:36:04;100535.94;;;8.14;85.09
84815;BME280;75050;53.190;5.562;2024-02-26T01:38:30;100521.69;;;8.05;84.96
84815;BME280;75050;53.190;5.562;2024-02-26T01:40:55;100542.88;;;8.13;84.78
84815;BME280;75050;53.190;5.562;2024-02-26T01:43:22;100531.97;;;8.07;84.77
84815;BME280;75050;53.190;5.562;2024-02-26T01:45:47;100536.13;;;8.11;84.80
84815;BME280;75050;53.190;5.562;2024-02-26T01:48:13;100544.72;;;8.11;84.80
84815;BME280;75050;53.190;5.562;2024-02-26T01:50:39;100551.75;;;8.09;84.97
84815;BME280;75050;53.190;5.562;2024-02-26T01:53:06;100548.22;;;8.10;84.91
84815;BME280;75050;53.190;5.562;2024-02-26T01:55:32;100547.41;;;8.10;84.88
84815;BME280;75050;53.190;5.562;2024-02-26T01:57:58;100549.16;;;8.09;84.77
84815;BME280;75050;53.190;5.562;2024-02-26T02:00:24;100545.72;;;8.09;84.85
84815;BME280;75050;53.190;5.562;2024-02-26T02:02:50;100538.16;;;8.04;84.88
84815;BME280;75050;53.190;5.562;2024-02-26T02:05:16;100547.53;;;8.07;84.63
84815;BME280;75050;53.190;5.562;2024-02-26T02:07:44;100547.53;;;8.07;84.83
84815;BME280;75050;53.190;5.562;2024-02-26T02:10:10;100545.09;;;8.04;84.88
84815;BME280;75050;53.190;5.562;2024-02-26T02:12:36;100550.22;;;8.05;84.77
84815;BME280;75050;53.190;5.562;2024-02-26T02:15:05;100546.78;;;8.05;84.97
84815;BME280;75050;53.190;5.562;2024-02-26T02:17:31;100541.00;;;8.00;84.82
84815;BME280;75050;53.190;5.562;2024-02-26T02:19:56;100548.69;;;8.02;84.80
84815;BME280;75050;53.190;5.562;2024-02-26T02:22:22;100559.84;;;8.03;84.76
84815;BME280;75050;53.190;5.562;2024-02-26T02:24:49;100542.91;;;7.97;84.97
84815;BME280;75050;53.190;5.562;2024-02-26T02:27:14;100558.97;;;8.03;84.81
84815;BME280;75050;53.190;5.562;2024-02-26T02:29:39;100526.25;;;7.85;84.94
84815;BME280;75050;53.190;5.562;2024-02-26T02:32:06;100553.91;;;8.02;84.79
84815;BME280;75050;53.190;5.562;2024-02-26T02:34:32;100556.72;;;7.97;84.73
84815;BME280;75050;53.190;5.562;2024-02-26T02:36:57;100571.19;;;8.01;84.74
84815;BME280;75050;53.190;5.562;2024-02-26T02:39:23;100560.22;;;7.96;84.81
84815;BME280;75050;53.190;5.562;2024-02-26T02:41:48;100578.22;;;7.99;84.61
84815;BME280;75050;53.190;5.562;2024-02-26T02:44:13;100569.75;;;7.96;84.87
84815;BME280;75050;53.190;5.562;2024-02-26T02:46:39;100573.09;;;7.98;84.76
84815;BME280;75050;53.190;5.562;2024-02-26T02:49:10;100581.81;;;7.97;84.84
84815;BME280;75050;53.190;5.562;2024-02-26T02:51:36;100551.63;;;7.79;84.82
84815;BME280;75050;53.190;5.562;2024-02-26T02:54:02;100577.63;;;7.94;84.41
84815;BME280;75050;53.190;5.562;2024-02-26T02:56:28;100571.00;;;7.89;84.78
84815;BME280;75050;53.190;5.562;2024-02-26T02:58:53;100582.81;;;7.94;84.60
84815;BME280;75050;53.190;5.562;2024-02-26T03:01:18;100589.75;;;7.94;84.87
84815;BME280;75050;53.190;5.562;2024-02-26T03:03:44;100601.81;;;7.95;84.74
84815;BME280;75050;53.190;5.562;2024-02-26T03:06:09;100597.53;;;7.94;84.74
84815;BME280;75050;53.190;5.562;2024-02-26T03:08:35;100606.22;;;7.93;84.78
84815;BME280;75050;53.190;5.562;2024-02-26T03:11:03;100604.47;;;7.93;84.81
84815;BME280;75050;53.190;5.562;2024-02-26T03:13:29;100586.84;;;7.83;84.67
84815;BME280;75050;53.190;5.562;2024-02-26T03:15:54;100597.84;;;7.88;84.88
84815;BME280;75050;53.190;5.562;2024-02-26T03:18:20;100602.88;;;7.91;84.91
84815;BME280;75050;53.190;5.562;2024-02-26T03:20:45;100595.31;;;7.86;84.62
84815;BME280;75050;53.190;5.562;2024-02-26T03:23:11;100608.06;;;7.91;84.78
84815;BME280;75050;53.190;5.562;2024-02-26T03:25:41;100609.03;;;7.88;84.79
84815;BME280;75050;53.190;5.562;2024-02-26T03:28:06;100614.41;;;7.85;84.75
84815;BME280;75050;53.190;5.562;2024-02-26T03:30:31;100623.69;;;7.89;84.82
84815;BME280;75050;53.190;5.562;2024-02-26T03:32:57;100632.38;;;7.88;84.75
84815;BME280;75050;53.190;5.562;2024-02-26T03:35:22;100622.94;;;7.87;84.78
84815;BME280;75050;53.190;5.562;2024-02-26T03:37:47;100634.16;;;7.88;84.71
84815;BME280;75050;53.190;5.562;2024-02-26T03:40:13;100625.59;;;7.86;84.79
84815;BME280;75050;53.190;5.562;2024-02-26T03:42:39;100633.38;;;7.86;84.78
84815;BME280;75050;53.190;5.562;2024-02-26T03:45:05;100634.22;;;7.86;84.78
84815;BME280;75050;53.190;5.562;2024-02-26T03:47:31;100632.56;;;7.85;84.71
84815;BME280;75050;53.190;5.562;2024-02-26T03:49:56;100630.09;;;7.82;84.63
84815;BME280;75050;53.190;5.562;2024-02-26T03:52:21;100634.31;;;7.85;84.82
84815;BME280;75050;53.190;5.562;2024-02-26T03:54:47;100638.66;;;7.84;84.79
84815;BME280;75050;53.190;5.562;2024-02-26T03:57:12;100627.91;;;7.75;84.69
84815;BME280;75050;53.190;5.562;2024-02-26T03:59:37;100641.31;;;7.83;84.66
84815;BME280;75050;53.190;5.562;2024-02-26T04:02:04;100653.44;;;7.82;84.97
84815;BME280;75050;53.190;5.562;2024-02-26T04:04:30;100646.75;;;7.78;84.78
84815;BME280;75050;53.190;5.562;2024-02-26T04:06:58;100660.41;;;7.82;84.68
84815;BME280;75050;53.190;5.562;2024-02-26T04:09:24;100663.06;;;7.80;84.71
84815;BME280;75050;53.190;5.562;2024-02-26T04:11:49;100663.06;;;7.80;84.83
84815;BME280;75050;53.190;5.562;2024-02-26T04:14:15;100665.66;;;7.80;84.72
84815;BME280;75050;53.190;5.562;2024-02-26T04:16:40;100656.50;;;7.73;84.80
84815;BME280;75050;53.190;5.562;2024-02-26T04:19:05;100668.38;;;7.77;84.66
84815;BME280;75050;53.190;5.562;2024-02-26T04:21:32;100680.44;;;7.78;84.72
84815;BME280;75050;53.190;5.562;2024-02-26T04:23:57;100682.22;;;7.78;84.81
84815;BME280;75050;53.190;5.562;2024-02-26T04:26:26;100676.16;;;7.77;84.77
84815;BME280;75050;53.190;5.562;2024-02-26T04:28:51;100681.34;;;7.77;84.67
84815;BME280;75050;53.190;5.562;2024-02-26T04:31:18;100679.00;;;7.73;84.69
84815;BME280;75050;53.190;5.562;2024-02-26T04:33:43;100675.56;;;7.72;84.77
84815;BME280;75050;53.190;5.562;2024-02-26T04:36:13;100660.31;;;7.66;84.66
84815;BME280;75050;53.190;5.562;2024-02-26T04:38:40;100680.59;;;7.75;84.71
84815;BME280;75050;53.190;5.562;2024-02-26T04:41:05;100681.44;;;7.76;84.79
84815;BME280;75050;53.190;5.562;2024-02-26T04:43:30;100674.81;;;7.70;84.77
84815;BME280;75050;53.190;5.562;2024-02-26T04:45:56;100685.00;;;7.73;84.76
84815;BME280;75050;53.190;5.562;2024-02-26T04:48:22;100686.78;;;7.73;84.57
84815;BME280;75050;53.190;5.562;2024-02-26T04:50:48;100676.72;;;7.67;84.82
84815;BME280;75050;53.190;5.562;2024-02-26T04:53:13;100689.28;;;7.74;84.71
84815;BME280;75050;53.190;5.562;2024-02-26T04:55:39;100690.97;;;7.75;84.60
84815;BME280;75050;53.190;5.562;2024-02-26T04:58:04;100697.13;;;7.73;84.75
84815;BME280;75050;53.190;5.562;2024-02-26T05:00:30;100703.16;;;7.73;84.74
84815;BME280;75050;53.190;5.562;2024-02-26T05:02:55;100701.50;;;7.72;84.72
84815;BME280;75050;53.190;5.562;2024-02-26T05:05:20;100705.16;;;7.68;84.75
84815;BME280;75050;53.190;5.562;2024-02-26T05:07:46;100708.50;;;7.70;84.69
84815;BME280;75050;53.190;5.562;2024-02-26T05:10:11;100674.78;;;7.54;84.73
84815;BME280;75050;53.190;5.562;2024-02-26T05:12:37;100717.13;;;7.71;84.63
84815;BME280;75050;53.190;5.562;2024-02-26T05:15:03;100713.84;;;7.67;84.64
84815;BME280;75050;53.190;5.562;2024-02-26T05:17:28;100711.09;;;7.70;84.74
84815;BME280;75050;53.190;5.562;2024-02-26T05:19:54;100713.00;;;7.67;84.79
84815;BME280;75050;53.190;5.562;2024-02-26T05:22:20;100722.38;;;7.69;84.76
84815;BME280;75050;53.190;5.562;2024-02-26T05:24:45;100726.72;;;7.69;84.74
84815;BME280;75050;53.190;5.562;2024-02-26T05:27:10;100724.13;;;7.69;84.61
84815;BME280;75050;53.190;5.562;2024-02-26T05:29:37;100725.03;;;7.68;84.61
84815;BME280;75050;53.190;5.562;2024-02-26T05:32:03;100729.38;;;7.67;84.52
84815;BME280;75050;53.190;5.562;2024-02-26T05:34:29;100732.81;;;7.68;84.72
84815;BME280;75050;53.190;5.562;2024-02-26T05:36:55;100733.75;;;7.67;84.62
84815;BME280;75050;53.190;5.562;2024-02-26T05:39:20;100736.34;;;7.67;84.80
84815;BME280;75050;53.190;5.562;2024-02-26T05:41:46;100745.88;;;7.66;84.84
84815;BME280;75050;53.190;5.562;2024-02-26T05:44:11;100753.66;;;7.66;84.62
84815;BME280;75050;53.190;5.562;2024-02-26T05:46:36;100747.00;;;7.61;84.76
84815;BME280;75050;53.190;5.562;2024-02-26T05:49:02;100754.69;;;7.63;84.81
84815;BME280;75050;53.190;5.562;2024-02-26T05:51:28;100772.69;;;7.65;84.78
84815;BME280;75050;53.190;5.562;2024-02-26T05:53:53;100742.31;;;7.51;84.68
84815;BME280;75050;53.190;5.562;2024-02-26T05:56:21;100747.50;;;7.51;84.72
84815;BME280;75050;53.190;5.562;2024-02-26T05:58:47;100772.00;;;7.62;84.88
84815;BME280;75050;53.190;5.562;2024-02-26T06:01:13;100777.06;;;7.65;84.81
84815;BME280;75050;53.190;5.562;2024-02-26T06:03:38;100757.56;;;7.57;84.67
84815;BME280;75050;53.190;5.562;2024-02-26T06:06:04;100773.59;;;7.64;84.66
84815;BME280;75050;53.190;5.562;2024-02-26T06:08:29;100778.78;;;7.64;84.73
84815;BME280;75050;53.190;5.562;2024-02-26T06:10:55;100777.94;;;7.64;84.67
84815;BME280;75050;53.190;5.562;2024-02-26T06:13:20;100783.19;;;7.63;84.72
84815;BME280;75050;53.190;5.562;2024-02-26T06:15:46;100790.91;;;7.64;84.59
84815;BME280;75050;53.190;5.562;2024-02-26T06:18:11;100771.53;;;7.54;84.60
84815;BME280;75050;53.190;5.562;2024-02-26T06:20:36;100796.16;;;7.63;84.67
84815;BME280;75050;53.190;5.562;2024-02-26T06:23:02;100797.09;;;7.62;84.77
84815;BME280;75050;53.190;5.562;2024-02-26T06:25:27;100793.03;;;7.56;84.72
84815;BME280;75050;53.190;5.562;2024-02-26T06:27:52;100803.28;;;7.59;84.62
84815;BME280;75050;53.190;5.562;2024-02-26T06:30:18;100817.81;;;7.62;84.67
84815;BME280;75050;53.190;5.562;2024-02-26T06:32:43;100821.31;;;7.61;84.65
84815;BME280;75050;53.190;5.562;2024-02-26T06:35:08;100815.44;;;7.57;84.73
84815;BME280;75050;53.190;5.562;2024-02-26T06:37:36;100814.59;;;7.57;84.64
84815;BME280;75050;53.190;5.562;2024-02-26T06:40:02;100810.47;;;7.53;84.67
84815;BME280;75050;53.190;5.562;2024-02-26T06:42:29;100814.81;;;7.52;84.66
84815;BME280;75050;53.190;5.562;2024-02-26T06:44:55;100829.31;;;7.56;84.72
84815;BME280;75050;53.190;5.562;2024-02-26T06:47:20;100835.28;;;7.58;84.67
84815;BME280;75050;53.190;5.562;2024-02-26T06:49:46;100824.97;;;7.57;84.63
84815;BME280;75050;53.190;5.562;2024-02-26T06:52:11;100852.53;;;7.59;84.70
84815;BME280;75050;53.190;5.562;2024-02-26T06:54:37;100845.63;;;7.58;84.63
84815;BME280;75050;53.190;5.562;2024-02-26T06:57:02;100842.22;;;7.58;84.63
84815;BME280;75050;53.190;5.562;2024-02-26T06:59:28;100847.41;;;7.58;84.69
84815;BME280;75050;53.190;5.562;2024-02-26T07:01:53;100853.41;;;7.58;84.56
84815;BME280;75050;53.190;5.562;2024-02-26T07:04:20;100864.69;;;7.57;84.62
84815;BME280;75050;53.190;5.562;2024-02-26T07:06:45;100864.69;;;7.57;84.67
84815;BME280;75050;53.190;5.562;2024-02-26T07:09:11;100861.31;;;7.55;84.59
84815;BME280;75050;53.190;5.562;2024-02-26T07:11:37;100864.91;;;7.53;84.77
84815;BME280;75050;53.190;5.562;2024-02-26T07:14:03;100873.38;;;7.56;84.73
84815;BME280;75050;53.190;5.562;2024-02-26T07:16:28;100871.63;;;7.57;84.60
84815;BME280;75050;53.190;5.562;2024-02-26T07:18:54;100867.38;;;7.56;84.62
84815;BME280;75050;53.190;5.562;2024-02-26T07:21:19;100867.38;;;7.56;84.50
84815;BME280;75050;53.190;5.562;2024-02-26T07:23:44;100869.97;;;7.56;84.59
84815;BME280;75050;53.190;5.562;2024-02-26T07:26:10;100870.84;;;7.55;84.71
84815;BME280;75050;53.190;5.562;2024-02-26T07:28:37;100861.59;;;7.49;84.64
84815;BME280;75050;53.190;5.562;2024-02-26T07:31:02;100876.09;;;7.53;84.66
84815;BME280;75050;53.190;5.562;2024-02-26T07:33:28;100876.97;;;7.54;85.03
84815;BME280;75050;53.190;5.562;2024-02-26T07:35:54;100878.63;;;7.55;84.76
84815;BME280;75050;53.190;5.562;2024-02-26T07:38:19;100886.47;;;7.53;84.66
84815;BME280;75050;53.190;5.562;2024-02-26T07:40:44;100888.16;;;7.54;84.55
84815;BME280;75050;53.190;5.562;2024-02-26T07:43:10;100885.84;;;7.48;84.55
84815;BME280;75050;53.190;5.562;2024-02-26T07:45:35;100890.00;;;7.52;84.71
84815;BME280;75050;53.190;5.562;2024-02-26T07:48:02;100899.53;;;7.52;84.59
84815;BME280;75050;53.190;5.562;2024-02-26T07:50:27;100891.81;;;7.50;84.56
84815;BME280;75050;53.190;5.562;2024-02-26T07:52:52;100892.53;;;7.54;85.26
84815;BME280;75050;53.190;5.562;2024-02-26T07:55:18;100890.00;;;7.52;84.69
84815;BME280;75050;53.190;5.562;2024-02-26T07:57:44;100891.66;;;7.53;84.66
84815;BME280;75050;53.190;5.562;2024-02-26T08:00:10;100898.59;;;7.53;84.64
84815;BME280;75050;53.190;5.562;2024-02-26T08:02:36;100902.94;;;7.52;84.58
84815;BME280;75050;53.190;5.562;2024-02-26T08:05:01;100885.97;;;7.45;84.72
84815;BME280;75050;53.190;5.562;2024-02-26T08:07:27;100896.34;;;7.45;84.48
84815;BME280;75050;53.190;5.562;2024-02-26T08:09:53;100897.13;;;7.47;84.48
84815;BME280;75050;53.190;5.562;2024-02-26T08:12:19;100903.84;;;7.51;84.69
84815;BME280;75050;53.190;5.562;2024-02-26T08:14:44;100914.22;;;7.51;84.64
84815;BME280;75050;53.190;5.562;2024-02-26T08:17:10;100912.72;;;7.46;84.48
84815;BME280;75050;53.190;5.562;2024-02-26T08:19:35;100928.03;;;7.52;84.54
84815;BME280;75050;53.190;5.562;2024-02-26T08:22:01;100928.94;;;7.51;85.13
84815;BME280;75050;53.190;5.562;2024-02-26T08:24:26;100918.78;;;7.46;84.47
84815;BME280;75050;53.190;5.562;2024-02-26T08:26:52;100925.69;;;7.46;84.53
84815;BME280;75050;53.190;5.562;2024-02-26T08:29:17;100927.22;;;7.50;84.49
84815;BME280;75050;53.190;5.562;2024-02-26T08:31:42;100920.56;;;7.44;84.63
84815;BME280;75050;53.190;5.562;2024-02-26T08:34:09;100936.72;;;7.51;84.67
84815;BME280;75050;53.190;5.562;2024-02-26T08:36:34;100924.16;;;7.42;84.58
84815;BME280;75050;53.190;5.562;2024-02-26T08:39:00;100936.66;;;7.52;84.69
84815;BME280;75050;53.190;5.562;2024-02-26T08:41:25;100938.41;;;7.52;84.63
84815;BME280;75050;53.190;5.562;2024-02-26T08:43:51;100952.19;;;7.52;84.36
84815;BME280;75050;53.190;5.562;2024-02-26T08:46:16;100953.03;;;7.53;84.59
84815;BME280;75050;53.190;5.562;2024-02-26T08:48:42;100942.94;;;7.47;84.68
84815;BME280;75050;53.190;5.562;2024-02-26T08:51:08;100941.13;;;7.49;84.55
84815;BME280;75050;53.190;5.562;2024-02-26T08:53:35;100943.66;;;7.50;84.58
84815;BME280;75050;53.190;5.562;2024-02-26T08:56:00;100957.31;;;7.54;84.59
84815;BME280;75050;53.190;5.562;2024-02-26T08:58:27;100958.22;;;7.53;84.70
84815;BME280;75050;53.190;5.562;2024-02-26T09:00:52;100957.31;;;7.54;84.62
84815;BME280;75050;53.190;5.562;2024-02-26T09:03:18;100954.03;;;7.50;84.55
84815;BME280;75050;53.190;5.562;2024-02-26T09:05:43;100959.91;;;7.54;84.53
84815;BME280;75050;53.190;5.562;2024-02-26T09:08:08;100949.72;;;7.49;84.60
84815;BME280;75050;53.190;5.562;2024-02-26T09:10:34;100954.03;;;7.50;84.56
84815;BME280;75050;53.190;5.562;2024-02-26T09:12:59;100953.97;;;7.52;84.54
84815;BME280;75050;53.190;5.562;2024-02-26T09:15:25;100978.06;;;7.54;84.54
84815;BME280;75050;53.190;5.562;2024-02-26T09:17:50;100965.34;;;7.48;84.54
84815;BME280;75050;53.190;5.562;2024-02-26T09:20:17;100971.94;;;7.55;84.57
84815;BME280;75050;53.190;5.562;2024-02-26T09:22:46;100974.53;;;7.55;84.66
84815;BME280;75050;53.190;5.562;2024-02-26T09:25:12;100975.38;;;7.55;84.49
84815;BME280;75050;53.190;5.562;2024-02-26T09:27:37;100960.81;;;7.53;84.66
84815;BME280;75050;53.190;5.562;2024-02-26T09:30:03;100971.06;;;7.56;84.66
84815;BME280;75050;53.190;5.562;2024-02-26T09:32:28;100968.47;;;7.56;84.59
84815;BME280;75050;53.190;5.562;2024-02-26T09:34:54;100981.34;;;7.57;84.57
84815;BME280;75050;53.190;5.562;2024-02-26T09:37:19;100988.28;;;7.57;84.76
84815;BME280;75050;53.190;5.562;2024-02-26T09:39:44;100987.56;;;7.53;84.56
84815;BME280;75050;53.190;5.562;2024-02-26T09:42:12;101002.94;;;7.58;84.77
84815;BME280;75050;53.190;5.562;2024-02-26T09:44:40;100996.13;;;7.55;84.97
84815;BME280;75050;53.190;5.562;2024-02-26T09:47:09;101003.78;;;7.58;84.63
84815;BME280;75050;53.190;5.562;2024-02-26T09:49:36;100978.50;;;7.43;84.50
84815;BME280;75050;53.190;5.562;2024-02-26T09:52:04;101014.09;;;7.60;84.43
84815;BME280;75050;53.190;5.562;2024-02-26T09:54:30;101020.22;;;7.57;84.42
84815;BME280;75050;53.190;5.562;2024-02-26T09:56:59;101025.56;;;7.54;84.70
84815;BME280;75050;53.190;5.562;2024-02-26T09:59:26;101038.25;;;7.60;84.59
84815;BME280;75050;53.190;5.562;2024-02-26T10:01:53;101033.19;;;7.57;84.51
84815;BME280;75050;53.190;5.562;2024-02-26T10:04:19;101039.94;;;7.61;84.62
84815;BME280;75050;53.190;5.562;2024-02-26T10:06:45;101031.63;;;7.53;84.70
84815;BME280;75050;53.190;5.562;2024-02-26T10:09:12;101048.56;;;7.62;84.67
84815;BME280;75050;53.190;5.562;2024-02-26T10:11:38;101051.16;;;7.62;84.58
84815;BME280;75050;53.190;5.562;2024-02-26T10:14:05;101057.16;;;7.62;84.56
84815;BME280;75050;53.190;5.562;2024-02-26T10:16:31;101031.06;;;7.47;84.83
84815;BME280;75050;53.190;5.562;2024-02-26T10:18:57;101061.56;;;7.60;84.67
84815;BME280;75050;53.190;5.562;2024-02-26T10:21:22;101062.34;;;7.62;84.72
84815;BME280;75050;53.190;5.562;2024-02-26T10:23:48;101065.00;;;7.61;84.62
84815;BME280;75050;53.190;5.562;2024-02-26T10:26:15;101066.66;;;7.63;84.71
84815;BME280;75050;53.190;5.562;2024-02-26T10:28:44;101068.25;;;7.65;84.66
84815;BME280;75050;53.190;5.562;2024-02-26T10:31:10;101076.88;;;7.66;84.65
84815;BME280;75050;53.190;5.562;2024-02-26T10:33:37;101080.31;;;7.66;84.65
84815;BME280;75050;53.190;5.562;2024-02-26T10:36:06;101094.13;;;7.67;84.85
84815;BME280;75050;53.190;5.562;2024-02-26T10:38:33;101097.53;;;7.67;85.09
84815;BME280;75050;53.190;5.562;2024-02-26T10:40:59;101095.94;;;7.65;84.51
84815;BME280;75050;53.190;5.562;2024-02-26T10:43:27;101098.47;;;7.66;84.64
84815;BME280;75050;53.190;5.562;2024-02-26T10:45:55;101103.56;;;7.68;84.63
84815;BME280;75050;53.190;5.562;2024-02-26T10:48:21;101079.28;;;7.51;84.77
84815;BME280;75050;53.190;5.562;2024-02-26T10:50:47;101109.63;;;7.68;84.88
84815;BME280;75050;53.190;5.562;2024-02-26T10:53:16;101118.22;;;7.69;84.71
84815;BME280;75050;53.190;5.562;2024-02-26T10:55:48;101118.19;;;7.70;84.77
84815;BME280;75050;53.190;5.562;2024-02-26T10:58:13;101129.44;;;7.69;84.62
84815;BME280;75050;53.190;5.562;2024-02-26T11:00:39;101135.47;;;7.70;84.65
84815;BME280;75050;53.190;5.562;2024-02-26T11:03:06;101126.13;;;7.66;84.77
84815;BME280;75050;53.190;5.562;2024-02-26T11:05:35;101106.75;;;7.55;84.70
84815;BME280;75050;53.190;5.562;2024-02-26T11:08:02;101125.41;;;7.63;84.77
84815;BME280;75050;53.190;5.562;2024-02-26T11:10:29;101123.75;;;7.62;84.79
84815;BME280;75050;53.190;5.562;2024-02-26T11:12:56;101137.09;;;7.72;84.81
84815;BME280;75050;53.190;5.562;2024-02-26T11:15:23;101149.09;;;7.75;84.83
84815;BME280;75050;53.190;5.562;2024-02-26T11:17:50;101140.72;;;7.68;84.65
84815;BME280;75050;53.190;5.562;2024-02-26T11:20:17;101159.41;;;7.76;84.77
84815;BME280;75050;53.190;5.562;2024-02-26T11:22:44;101156.75;;;7.78;84.75
84815;BME280;75050;53.190;5.562;2024-02-26T11:25:09;101156.75;;;7.78;84.66
84815;BME280;75050;53.190;5.562;2024-02-26T11:27:46;101144.03;;;7.72;84.67
84815;BME280;75050;53.190;5.562;2024-02-26T11:30:14;101164.47;;;7.79;84.56
84815;BME280;75050;53.190;5.562;2024-02-26T11:32:44;101165.38;;;7.78;84.43
84815;BME280;75050;53.190;5.562;2024-02-26T11:35:10;101166.97;;;7.81;84.71
84815;BME280;75050;53.190;5.562;2024-02-26T11:37:39;101163.59;;;7.79;84.78
84815;BME280;75050;53.190;5.562;2024-02-26T11:40:10;101175.53;;;7.83;84.57
84815;BME280;75050;53.190;5.562;2024-02-26T11:42:43;101179.06;;;7.82;84.61
84815;BME280;75050;53.190;5.562;2024-02-26T11:48:04;101151.88;;;7.70;84.74
84815;BME280;75050;53.190;5.562;2024-02-26T11:50:34;101167.97;;;7.78;84.61
84815;BME280;75050;53.190;5.562;2024-02-26T11:53:26;101187.41;;;7.88;84.69
84815;BME280;75050;53.190;5.562;2024-02-26T11:56:24;101178.72;;;7.89;84.72
84815;BME280;75050;53.190;5.562;2024-02-26T11:59:03;101172.94;;;7.83;84.80
84815;BME280;75050;53.190;5.562;2024-02-26T12:01:43;101184.75;;;7.90;84.64
84815;BME280;75050;53.190;5.562;2024-02-26T12:06:45;101181.38;;;7.88;84.58
84815;BME280;75050;53.190;5.562;2024-02-26T12:09:11;101187.28;;;7.91;84.57
84815;BME280;75050;53.190;5.562;2024-02-26T12:11:40;101181.38;;;7.88;84.55
84815;BME280;75050;53.190;5.562;2024-02-26T12:14:08;101183.88;;;7.91;84.51
84815;BME280;75050;53.190;5.562;2024-02-26T12:16:38;101192.38;;;7.94;84.68
84815;BME280;75050;53.190;5.562;2024-02-26T12:19:05;101192.38;;;7.94;84.60
84815;BME280;75050;53.190;5.562;2024-02-26T12:21:33;101193.38;;;7.90;84.57
84815;BME280;75050;53.190;5.562;2024-02-26T12:24:20;101194.19;;;7.92;84.70
84815;BME280;75050;53.190;5.562;2024-02-26T12:26:46;101199.22;;;7.95;84.77
84815;BME280;75050;53.190;5.562;2024-02-26T12:29:12;101202.59;;;7.97;84.64
84815;BME280;75050;53.190;5.562;2024-02-26T12:31:39;101195.66;;;7.98;84.59
84815;BME280;75050;53.190;5.562;2024-02-26T12:34:06;101196.50;;;7.98;84.54
84815;BME280;75050;53.190;5.562;2024-02-26T12:36:33;101206.88;;;7.98;84.62
84815;BME280;75050;53.190;5.562;2024-02-26T12:39:00;101205.13;;;7.99;84.61
84815;BME280;75050;53.190;5.562;2024-02-26T12:41:27;101208.56;;;7.99;84.59
84815;BME280;75050;53.190;5.562;2024-02-26T12:43:54;101213.63;;;8.02;84.63
84815;BME280;75050;53.190;5.562;2024-02-26T12:46:20;101217.13;;;8.01;84.52
84815;BME280;75050;53.190;5.562;2024-02-26T12:48:46;101199.38;;;7.92;84.56
84815;BME280;75050;53.190;5.562;2024-02-26T12:51:12;101224.00;;;8.02;84.46
84815;BME280;75050;53.190;5.562;2024-02-26T12:53:39;101224.78;;;8.04;84.48
84815;BME280;75050;53.190;5.562;2024-02-26T12:56:07;101227.50;;;8.01;84.62
84815;BME280;75050;53.190;5.562;2024-02-26T12:58:34;101223.91;;;8.05;84.49
84815;BME280;75050;53.190;5.562;2024-02-26T13:01:01;101230.09;;;8.01;84.43